Marshalls Creek, Pennsylvania
Current Conditions -  °F | °C
As of 12:53 AM on Monday 22 Dec 2014 (Local Time) from KMPO Reporting Station
Overcast Overcast  
Wind Chill: 22°   Ceiling: 1000
Heat Index: 27°   Visibility: 10mi
Dew Point: 21°   Wind: 5mph
Humidity: 78%   Direction: 80°E
Pressure: 30.22"   Gusts: NA
Location:  41.04°N, 75.13°W
Report Text: KMPO 220553Z AUTO 08004KT 10SM OVC010 M03/M06 A3022 RMK AO2 SLP261 T10281061 11022 21033 58002
Loading
Personal Weather Stations






























Interactive Weather Map New forecast layout! Learn more

10-Day Weather Forecast

Advertisements
Track Severe Weather on mobile